KLRJ/LRJ METAR and TAF weather

Enter ICAO airport designator
Station Type Date Time Source
KLRJ METAR 2020/11/28 19:35 UTC NOAA

KLRJ 281935Z AUTO 21005KT 10SM CLR 11/M02 A2995 RMK AO2


Station Type Date Time Source
KLRJ Decoded METAR 2020/11/28 19:35 UTC NOAA

Le Mars, Le Mars Municipal Airport, IA, United States (KLRJ) 42-46-41N 096-11-37W
Nov 28, 2020 - 02:35 PM EST / 2020.11.28 1935 UTC
Wind: from the SSW (210 degrees) at 6 MPH (5 KT):0
Visibility: 10 mile(s):0
Sky conditions: clear
Temperature: 51 F (11 C)
Dew Point: 28 F (-2 C)
Relative Humidity: 40%
Pressure (altimeter): 29.95 in. Hg (1014 hPa)
ob: KLRJ 281935Z AUTO 21005KT 10SM CLR 11/M02 A2995 RMK AO2
cycle: 19

Station Type Date Time Source
KLRJ TAF UTC NOAA

Error!

Example: see airport list